sensor_id;sensor_type;location;lat;lon;timestamp;temperature;humidity
75155;HTU21D;63735;44.730;37.818;2022-12-07T00:01:39;6.00;72.00
75155;HTU21D;63735;44.730;37.818;2022-12-07T00:04:07;6.00;71.97
75155;HTU21D;63735;44.730;37.818;2022-12-07T00:06:36;5.99;72.01
75155;HTU21D;63735;44.730;37.818;2022-12-07T00:09:03;5.97;72.11
75155;HTU21D;63735;44.730;37.818;2022-12-07T00:11:29;5.98;72.19
75155;HTU21D;63735;44.730;37.818;2022-12-07T00:13:58;5.98;72.20
75155;HTU21D;63735;44.730;37.818;2022-12-07T00:16:27;5.98;72.19
75155;HTU21D;63735;44.730;37.818;2022-12-07T00:18:54;5.99;72.17
75155;HTU21D;63735;44.730;37.818;2022-12-07T00:21:40;5.97;72.41
75155;HTU21D;63735;44.730;37.818;2022-12-07T00:24:10;5.96;72.22
75155;HTU21D;63735;44.730;37.818;2022-12-07T00:26:41;5.95;72.24
75155;HTU21D;63735;44.730;37.818;2022-12-07T00:29:14;5.92;72.29
75155;HTU21D;63735;44.730;37.818;2022-12-07T00:31:40;5.91;72.28
75155;HTU21D;63735;44.730;37.818;2022-12-07T00:34:07;5.86;72.39
75155;HTU21D;63735;44.730;37.818;2022-12-07T00:36:37;5.83;72.48
75155;HTU21D;63735;44.730;37.818;2022-12-07T00:39:03;5.80;72.58
75155;HTU21D;63735;44.730;37.818;2022-12-07T00:41:29;5.77;72.63
75155;HTU21D;63735;44.730;37.818;2022-12-07T00:43:56;5.72;72.74
75155;HTU21D;63735;44.730;37.818;2022-12-07T00:46:23;5.68;72.83
75155;HTU21D;63735;44.730;37.818;2022-12-07T00:48:51;5.68;72.86
75155;HTU21D;63735;44.730;37.818;2022-12-07T00:51:20;5.68;72.83
75155;HTU21D;63735;44.730;37.818;2022-12-07T00:53:46;5.64;72.85
75155;HTU21D;63735;44.730;37.818;2022-12-07T00:56:24;5.60;72.92
75155;HTU21D;63735;44.730;37.818;2022-12-07T00:58:55;5.56;73.03
75155;HTU21D;63735;44.730;37.818;2022-12-07T01:01:23;5.54;73.15
75155;HTU21D;63735;44.730;37.818;2022-12-07T01:03:49;5.51;73.23
75155;HTU21D;63735;44.730;37.818;2022-12-07T01:06:18;5.48;73.29
75155;HTU21D;63735;44.730;37.818;2022-12-07T01:08:44;5.46;73.30
75155;HTU21D;63735;44.730;37.818;2022-12-07T01:11:14;5.41;73.32
75155;HTU21D;63735;44.730;37.818;2022-12-07T01:13:40;5.35;73.40
75155;HTU21D;63735;44.730;37.818;2022-12-07T01:16:07;5.33;73.49
75155;HTU21D;63735;44.730;37.818;2022-12-07T01:18:35;5.26;73.53
75155;HTU21D;63735;44.730;37.818;2022-12-07T01:21:06;5.20;73.58
75155;HTU21D;63735;44.730;37.818;2022-12-07T01:23:34;5.13;73.65
75155;HTU21D;63735;44.730;37.818;2022-12-07T01:26:06;5.05;73.84
75155;HTU21D;63735;44.730;37.818;2022-12-07T01:28:33;5.02;73.98
75155;HTU21D;63735;44.730;37.818;2022-12-07T01:33:28;4.95;74.15
75155;HTU21D;63735;44.730;37.818;2022-12-07T01:36:00;4.91;74.22
75155;HTU21D;63735;44.730;37.818;2022-12-07T01:38:26;4.87;74.31
75155;HTU21D;63735;44.730;37.818;2022-12-07T01:40:56;4.83;74.35
75155;HTU21D;63735;44.730;37.818;2022-12-07T01:43:23;4.82;74.35
75155;HTU21D;63735;44.730;37.818;2022-12-07T01:45:51;4.79;74.43
75155;HTU21D;63735;44.730;37.818;2022-12-07T01:48:20;4.76;74.58
75155;HTU21D;63735;44.730;37.818;2022-12-07T01:50:49;4.76;74.67
75155;HTU21D;63735;44.730;37.818;2022-12-07T01:53:16;4.79;74.70
75155;HTU21D;63735;44.730;37.818;2022-12-07T01:55:45;4.83;74.64
75155;HTU21D;63735;44.730;37.818;2022-12-07T01:58:12;4.84;74.65
75155;HTU21D;63735;44.730;37.818;2022-12-07T02:00:39;4.82;74.73
75155;HTU21D;63735;44.730;37.818;2022-12-07T02:03:09;4.75;74.90
75155;HTU21D;63735;44.730;37.818;2022-12-07T02:05:38;4.69;75.12
75155;HTU21D;63735;44.730;37.818;2022-12-07T02:08:06;4.63;75.65
75155;HTU21D;63735;44.730;37.818;2022-12-07T02:10:33;4.63;75.86
75155;HTU21D;63735;44.730;37.818;2022-12-07T02:13:05;4.65;75.95
75155;HTU21D;63735;44.730;37.818;2022-12-07T02:15:45;4.64;76.20
75155;HTU21D;63735;44.730;37.818;2022-12-07T02:18:32;4.76;76.09
75155;HTU21D;63735;44.730;37.818;2022-12-07T02:21:37;4.83;76.14
75155;HTU21D;63735;44.730;37.818;2022-12-07T02:26:55;4.89;76.02
75155;HTU21D;63735;44.730;37.818;2022-12-07T02:29:27;4.94;75.99
75155;HTU21D;63735;44.730;37.818;2022-12-07T02:32:11;5.02;75.87
75155;HTU21D;63735;44.730;37.818;2022-12-07T02:34:52;5.12;75.65
75155;HTU21D;63735;44.730;37.818;2022-12-07T02:40:22;5.23;75.54
75155;HTU21D;63735;44.730;37.818;2022-12-07T02:42:55;5.26;75.73
75155;HTU21D;63735;44.730;37.818;2022-12-07T02:45:25;5.30;75.94
75155;HTU21D;63735;44.730;37.818;2022-12-07T02:47:53;5.36;76.02
75155;HTU21D;63735;44.730;37.818;2022-12-07T02:50:22;5.40;76.01
75155;HTU21D;63735;44.730;37.818;2022-12-07T02:52:48;5.41;76.02
75155;HTU21D;63735;44.730;37.818;2022-12-07T02:55:16;5.47;76.02
75155;HTU21D;63735;44.730;37.818;2022-12-07T03:00:23;5.60;76.85
75155;HTU21D;63735;44.730;37.818;2022-12-07T03:02:59;5.70;77.07
75155;HTU21D;63735;44.730;37.818;2022-12-07T03:11:25;5.86;77.03
75155;HTU21D;63735;44.730;37.818;2022-12-07T03:14:02;5.91;77.05
75155;HTU21D;63735;44.730;37.818;2022-12-07T03:16:37;5.95;77.02
75155;HTU21D;63735;44.730;37.818;2022-12-07T03:19:13;6.00;77.14
75155;HTU21D;63735;44.730;37.818;2022-12-07T03:21:44;6.04;77.07
75155;HTU21D;63735;44.730;37.818;2022-12-07T03:24:21;6.02;77.04
75155;HTU21D;63735;44.730;37.818;2022-12-07T03:26:50;6.01;77.04
75155;HTU21D;63735;44.730;37.818;2022-12-07T03:29:33;6.04;77.09
75155;HTU21D;63735;44.730;37.818;2022-12-07T03:32:19;6.05;77.04
75155;HTU21D;63735;44.730;37.818;2022-12-07T03:34:51;6.02;76.96
75155;HTU21D;63735;44.730;37.818;2022-12-07T03:37:23;6.01;77.01
75155;HTU21D;63735;44.730;37.818;2022-12-07T03:40:07;5.97;77.18
75155;HTU21D;63735;44.730;37.818;2022-12-07T03:42:36;5.94;77.20
75155;HTU21D;63735;44.730;37.818;2022-12-07T03:45:04;5.93;77.27
75155;HTU21D;63735;44.730;37.818;2022-12-07T03:50:28;6.07;77.46
75155;HTU21D;63735;44.730;37.818;2022-12-07T03:52:58;6.08;77.37
75155;HTU21D;63735;44.730;37.818;2022-12-07T03:55:33;6.11;77.37
75155;HTU21D;63735;44.730;37.818;2022-12-07T03:58:13;6.14;77.48
75155;HTU21D;63735;44.730;37.818;2022-12-07T04:00:41;6.21;77.44
75155;HTU21D;63735;44.730;37.818;2022-12-07T04:03:09;6.23;77.43
75155;HTU21D;63735;44.730;37.818;2022-12-07T04:05:35;6.27;77.43
75155;HTU21D;63735;44.730;37.818;2022-12-07T04:08:01;6.29;77.53
75155;HTU21D;63735;44.730;37.818;2022-12-07T04:10:27;6.22;77.57
75155;HTU21D;63735;44.730;37.818;2022-12-07T04:12:53;6.11;77.67
75155;HTU21D;63735;44.730;37.818;2022-12-07T04:15:19;6.05;77.93
75155;HTU21D;63735;44.730;37.818;2022-12-07T04:17:44;6.05;78.13
75155;HTU21D;63735;44.730;37.818;2022-12-07T04:20:11;6.02;78.18
75155;HTU21D;63735;44.730;37.818;2022-12-07T04:22:37;6.02;78.09
75155;HTU21D;63735;44.730;37.818;2022-12-07T04:25:03;6.05;78.08
75155;HTU21D;63735;44.730;37.818;2022-12-07T04:27:29;6.12;78.14
75155;HTU21D;63735;44.730;37.818;2022-12-07T04:29:55;6.17;78.03
75155;HTU21D;63735;44.730;37.818;2022-12-07T04:32:22;6.15;77.94
75155;HTU21D;63735;44.730;37.818;2022-12-07T04:34:48;6.14;77.91
75155;HTU21D;63735;44.730;37.818;2022-12-07T04:37:14;6.13;77.92
75155;HTU21D;63735;44.730;37.818;2022-12-07T04:39:40;6.16;77.91
75155;HTU21D;63735;44.730;37.818;2022-12-07T04:42:06;6.21;77.83
75155;HTU21D;63735;44.730;37.818;2022-12-07T04:44:32;6.25;77.83
75155;HTU21D;63735;44.730;37.818;2022-12-07T04:46:58;6.30;77.76
75155;HTU21D;63735;44.730;37.818;2022-12-07T04:49:24;6.33;77.79
75155;HTU21D;63735;44.730;37.818;2022-12-07T04:51:51;6.35;77.86
75155;HTU21D;63735;44.730;37.818;2022-12-07T04:54:17;6.41;77.95
75155;HTU21D;63735;44.730;37.818;2022-12-07T04:56:43;6.42;78.08
75155;HTU21D;63735;44.730;37.818;2022-12-07T04:59:11;6.44;78.16
75155;HTU21D;63735;44.730;37.818;2022-12-07T05:01:38;6.51;78.17
75155;HTU21D;63735;44.730;37.818;2022-12-07T05:04:04;6.56;78.14
75155;HTU21D;63735;44.730;37.818;2022-12-07T05:06:30;6.63;78.05
75155;HTU21D;63735;44.730;37.818;2022-12-07T05:08:56;6.63;78.17
75155;HTU21D;63735;44.730;37.818;2022-12-07T05:11:22;6.66;78.30
75155;HTU21D;63735;44.730;37.818;2022-12-07T05:14:10;6.73;78.27
75155;HTU21D;63735;44.730;37.818;2022-12-07T05:16:37;6.83;78.21
75155;HTU21D;63735;44.730;37.818;2022-12-07T05:19:04;6.93;78.11
75155;HTU21D;63735;44.730;37.818;2022-12-07T05:21:30;7.01;78.01
75155;HTU21D;63735;44.730;37.818;2022-12-07T05:23:56;7.09;78.01
75155;HTU21D;63735;44.730;37.818;2022-12-07T05:26:22;7.18;78.01
75155;HTU21D;63735;44.730;37.818;2022-12-07T05:28:53;7.28;78.04
75155;HTU21D;63735;44.730;37.818;2022-12-07T05:31:20;7.43;78.03
75155;HTU21D;63735;44.730;37.818;2022-12-07T05:33:46;7.68;77.51
75155;HTU21D;63735;44.730;37.818;2022-12-07T05:36:12;7.75;77.26
75155;HTU21D;63735;44.730;37.818;2022-12-07T05:38:38;7.99;77.47
75155;HTU21D;63735;44.730;37.818;2022-12-07T05:41:05;8.52;76.94
75155;HTU21D;63735;44.730;37.818;2022-12-07T05:43:33;9.04;75.73
75155;HTU21D;63735;44.730;37.818;2022-12-07T05:46:00;9.04;75.42
75155;HTU21D;63735;44.730;37.818;2022-12-07T05:48:26;8.93;75.73
75155;HTU21D;63735;44.730;37.818;2022-12-07T05:50:52;8.83;76.06
75155;HTU21D;63735;44.730;37.818;2022-12-07T05:53:18;8.82;76.28
75155;HTU21D;63735;44.730;37.818;2022-12-07T05:55:44;8.87;76.24
75155;HTU21D;63735;44.730;37.818;2022-12-07T05:58:10;8.85;76.28
75155;HTU21D;63735;44.730;37.818;2022-12-07T06:00:55;8.79;76.38
75155;HTU21D;63735;44.730;37.818;2022-12-07T06:03:21;8.76;76.58
75155;HTU21D;63735;44.730;37.818;2022-12-07T06:05:48;8.74;76.66
75155;HTU21D;63735;44.730;37.818;2022-12-07T06:08:14;8.75;76.70
75155;HTU21D;63735;44.730;37.818;2022-12-07T06:10:41;8.78;76.73
75155;HTU21D;63735;44.730;37.818;2022-12-07T06:13:08;8.80;76.70
75155;HTU21D;63735;44.730;37.818;2022-12-07T06:15:37;8.75;76.76
75155;HTU21D;63735;44.730;37.818;2022-12-07T06:18:03;8.71;76.78
75155;HTU21D;63735;44.730;37.818;2022-12-07T06:20:29;8.68;76.93
75155;HTU21D;63735;44.730;37.818;2022-12-07T06:22:55;8.71;77.03
75155;HTU21D;63735;44.730;37.818;2022-12-07T06:25:21;8.75;77.15
75155;HTU21D;63735;44.730;37.818;2022-12-07T06:27:47;8.86;77.31
75155;HTU21D;63735;44.730;37.818;2022-12-07T06:30:13;9.04;78.06
75155;HTU21D;63735;44.730;37.818;2022-12-07T06:32:39;9.32;78.28
75155;HTU21D;63735;44.730;37.818;2022-12-07T06:35:05;9.93;78.11
75155;HTU21D;63735;44.730;37.818;2022-12-07T06:37:31;10.79;76.60
75155;HTU21D;63735;44.730;37.818;2022-12-07T06:39:57;11.23;75.57
75155;HTU21D;63735;44.730;37.818;2022-12-07T06:42:23;11.36;75.41
75155;HTU21D;63735;44.730;37.818;2022-12-07T06:44:49;11.41;75.48
75155;HTU21D;63735;44.730;37.818;2022-12-07T06:47:14;11.39;75.67
75155;HTU21D;63735;44.730;37.818;2022-12-07T06:49:40;11.41;75.83
75155;HTU21D;63735;44.730;37.818;2022-12-07T06:52:06;11.42;75.83
75155;HTU21D;63735;44.730;37.818;2022-12-07T06:54:32;11.34;75.94
75155;HTU21D;63735;44.730;37.818;2022-12-07T06:56:58;11.24;76.15
75155;HTU21D;63735;44.730;37.818;2022-12-07T06:59:24;11.10;76.41
75155;HTU21D;63735;44.730;37.818;2022-12-07T07:01:50;10.90;76.89
75155;HTU21D;63735;44.730;37.818;2022-12-07T07:04:16;10.79;77.32
75155;HTU21D;63735;44.730;37.818;2022-12-07T07:06:42;10.73;77.49
75155;HTU21D;63735;44.730;37.818;2022-12-07T07:09:07;10.74;77.52
75155;HTU21D;63735;44.730;37.818;2022-12-07T07:11:35;10.75;77.45
75155;HTU21D;63735;44.730;37.818;2022-12-07T07:14:01;10.79;77.39
75155;HTU21D;63735;44.730;37.818;2022-12-07T07:16:30;10.80;77.40
75155;HTU21D;63735;44.730;37.818;2022-12-07T07:18:57;10.81;77.40
75155;HTU21D;63735;44.730;37.818;2022-12-07T07:21:23;10.79;77.48
75155;HTU21D;63735;44.730;37.818;2022-12-07T07:23:49;10.74;77.66
75155;HTU21D;63735;44.730;37.818;2022-12-07T07:26:14;10.71;77.73
75155;HTU21D;63735;44.730;37.818;2022-12-07T07:28:40;10.66;77.87
75155;HTU21D;63735;44.730;37.818;2022-12-07T07:31:06;10.66;77.96
75155;HTU21D;63735;44.730;37.818;2022-12-07T07:33:32;10.64;78.01
75155;HTU21D;63735;44.730;37.818;2022-12-07T07:35:58;10.66;78.03
75155;HTU21D;63735;44.730;37.818;2022-12-07T07:38:24;10.68;78.05
75155;HTU21D;63735;44.730;37.818;2022-12-07T07:40:50;10.72;78.06
75155;HTU21D;63735;44.730;37.818;2022-12-07T07:43:16;10.74;78.01
75155;HTU21D;63735;44.730;37.818;2022-12-07T07:45:41;10.74;78.13
75155;HTU21D;63735;44.730;37.818;2022-12-07T07:48:07;10.79;78.18
75155;HTU21D;63735;44.730;37.818;2022-12-07T07:50:33;10.84;78.17
75155;HTU21D;63735;44.730;37.818;2022-12-07T07:52:59;10.89;78.24
75155;HTU21D;63735;44.730;37.818;2022-12-07T07:55:25;10.94;78.30
75155;HTU21D;63735;44.730;37.818;2022-12-07T07:57:51;10.99;78.34
75155;HTU21D;63735;44.730;37.818;2022-12-07T08:00:17;11.08;78.32
75155;HTU21D;63735;44.730;37.818;2022-12-07T08:02:43;11.17;78.24
75155;HTU21D;63735;44.730;37.818;2022-12-07T08:05:10;11.27;78.17
75155;HTU21D;63735;44.730;37.818;2022-12-07T08:07:37;11.38;78.06
75155;HTU21D;63735;44.730;37.818;2022-12-07T08:10:03;11.48;77.79
75155;HTU21D;63735;44.730;37.818;2022-12-07T08:12:29;11.62;77.70
75155;HTU21D;63735;44.730;37.818;2022-12-07T08:14:55;11.74;77.65
75155;HTU21D;63735;44.730;37.818;2022-12-07T08:17:21;11.82;77.63
75155;HTU21D;63735;44.730;37.818;2022-12-07T08:19:47;11.87;77.62
75155;HTU21D;63735;44.730;37.818;2022-12-07T08:22:13;11.97;77.50
75155;HTU21D;63735;44.730;37.818;2022-12-07T08:24:39;12.11;77.23
75155;HTU21D;63735;44.730;37.818;2022-12-07T08:27:05;12.28;77.01
75155;HTU21D;63735;44.730;37.818;2022-12-07T08:29:31;12.49;76.75
75155;HTU21D;63735;44.730;37.818;2022-12-07T08:31:57;12.90;76.48
75155;HTU21D;63735;44.730;37.818;2022-12-07T08:34:23;13.73;74.96
75155;HTU21D;63735;44.730;37.818;2022-12-07T08:36:48;14.35;73.41
75155;HTU21D;63735;44.730;37.818;2022-12-07T08:39:15;14.57;72.63
75155;HTU21D;63735;44.730;37.818;2022-12-07T08:41:41;14.49;72.54
75155;HTU21D;63735;44.730;37.818;2022-12-07T08:44:07;14.33;72.70
75155;HTU21D;63735;44.730;37.818;2022-12-07T08:46:46;14.13;72.87
75155;HTU21D;63735;44.730;37.818;2022-12-07T08:49:18;13.92;73.16
75155;HTU21D;63735;44.730;37.818;2022-12-07T08:51:45;13.88;73.35
75155;HTU21D;63735;44.730;37.818;2022-12-07T08:54:14;13.91;73.17
75155;HTU21D;63735;44.730;37.818;2022-12-07T08:56:41;13.94;72.96
75155;HTU21D;63735;44.730;37.818;2022-12-07T08:59:07;13.92;72.71
75155;HTU21D;63735;44.730;37.818;2022-12-07T09:01:34;14.00;72.56
75155;HTU21D;63735;44.730;37.818;2022-12-07T09:04:00;14.34;71.83
75155;HTU21D;63735;44.730;37.818;2022-12-07T09:06:26;14.43;71.22
75155;HTU21D;63735;44.730;37.818;2022-12-07T09:08:56;14.26;71.28
75155;HTU21D;63735;44.730;37.818;2022-12-07T09:11:23;14.04;71.42
75155;HTU21D;63735;44.730;37.818;2022-12-07T09:13:49;13.67;71.80
75155;HTU21D;63735;44.730;37.818;2022-12-07T09:16:15;13.47;72.16
75155;HTU21D;63735;44.730;37.818;2022-12-07T09:18:41;13.29;72.48
75155;HTU21D;63735;44.730;37.818;2022-12-07T09:21:07;13.14;72.40
75155;HTU21D;63735;44.730;37.818;2022-12-07T09:23:33;12.94;72.58
75155;HTU21D;63735;44.730;37.818;2022-12-07T09:26:00;12.71;72.83
75155;HTU21D;63735;44.730;37.818;2022-12-07T09:28:26;12.63;73.12
75155;HTU21D;63735;44.730;37.818;2022-12-07T09:30:52;12.59;73.32
75155;HTU21D;63735;44.730;37.818;2022-12-07T09:33:18;12.56;73.46
75155;HTU21D;63735;44.730;37.818;2022-12-07T09:35:45;12.55;73.57
75155;HTU21D;63735;44.730;37.818;2022-12-07T09:38:11;12.49;73.65
75155;HTU21D;63735;44.730;37.818;2022-12-07T09:40:38;12.48;73.71
75155;HTU21D;63735;44.730;37.818;2022-12-07T09:43:04;12.70;73.59
75155;HTU21D;63735;44.730;37.818;2022-12-07T09:45:36;13.26;73.05
75155;HTU21D;63735;44.730;37.818;2022-12-07T09:48:03;13.78;71.76
75155;HTU21D;63735;44.730;37.818;2022-12-07T09:50:30;13.89;71.42
75155;HTU21D;63735;44.730;37.818;2022-12-07T09:53:08;13.76;71.58
75155;HTU21D;63735;44.730;37.818;2022-12-07T09:55:36;13.80;71.81
75155;HTU21D;63735;44.730;37.818;2022-12-07T09:58:02;14.41;71.02
75155;HTU21D;63735;44.730;37.818;2022-12-07T10:00:29;14.47;70.64
75155;HTU21D;63735;44.730;37.818;2022-12-07T10:05:28;14.32;70.35
75155;HTU21D;63735;44.730;37.818;2022-12-07T10:07:55;14.33;70.29
75155;HTU21D;63735;44.730;37.818;2022-12-07T10:10:33;14.37;70.29
75155;HTU21D;63735;44.730;37.818;2022-12-07T10:13:05;14.68;69.90
75155;HTU21D;63735;44.730;37.818;2022-12-07T10:18:35;14.91;69.43
75155;HTU21D;63735;44.730;37.818;2022-12-07T10:21:11;14.78;69.60
75155;HTU21D;63735;44.730;37.818;2022-12-07T10:24:27;14.59;69.65
75155;HTU21D;63735;44.730;37.818;2022-12-07T10:26:34;14.27;69.81
75155;HTU21D;63735;44.730;37.818;2022-12-07T10:29:24;14.10;69.87
75155;HTU21D;63735;44.730;37.818;2022-12-07T10:34:35;13.64;69.97
75155;HTU21D;63735;44.730;37.818;2022-12-07T10:39:44;13.47;70.21
75155;HTU21D;63735;44.730;37.818;2022-12-07T10:42:24;13.25;70.56
75155;HTU21D;63735;44.730;37.818;2022-12-07T10:45:15;13.19;70.90
75155;HTU21D;63735;44.730;37.818;2022-12-07T10:53:28;13.03;71.19
75155;HTU21D;63735;44.730;37.818;2022-12-07T11:01:32;12.95;71.06
75155;HTU21D;63735;44.730;37.818;2022-12-07T11:06:41;12.93;71.03
75155;HTU21D;63735;44.730;37.818;2022-12-07T11:25:56;13.22;70.73
75155;HTU21D;63735;44.730;37.818;2022-12-07T11:31:01;13.62;70.26
75155;HTU21D;63735;44.730;37.818;2022-12-07T11:38:55;13.75;70.32
75155;HTU21D;63735;44.730;37.818;2022-12-07T11:41:29;13.97;70.04
75155;HTU21D;63735;44.730;37.818;2022-12-07T11:49:40;14.25;69.80
75155;HTU21D;63735;44.730;37.818;2022-12-07T11:52:20;14.37;69.37
75155;HTU21D;63735;44.730;37.818;2022-12-07T11:54:50;14.39;69.46
75155;HTU21D;63735;44.730;37.818;2022-12-07T11:57:38;14.60;69.12
75155;HTU21D;63735;44.730;37.818;2022-12-07T12:00:14;14.84;68.84
75155;HTU21D;63735;44.730;37.818;2022-12-07T12:03:01;15.18;67.76
75155;HTU21D;63735;44.730;37.818;2022-12-07T12:05:30;15.30;67.37
75155;HTU21D;63735;44.730;37.818;2022-12-07T12:08:00;15.41;67.03
75155;HTU21D;63735;44.730;37.818;2022-12-07T12:10:55;15.56;66.79
75155;HTU21D;63735;44.730;37.818;2022-12-07T12:13:39;15.92;66.89
75155;HTU21D;63735;44.730;37.818;2022-12-07T12:19:22;15.54;66.13
75155;HTU21D;63735;44.730;37.818;2022-12-07T12:22:00;14.96;66.14
75155;HTU21D;63735;44.730;37.818;2022-12-07T12:24:31;14.69;66.67
75155;HTU21D;63735;44.730;37.818;2022-12-07T12:27:06;14.56;66.85
75155;HTU21D;63735;44.730;37.818;2022-12-07T12:29:39;14.35;67.08
75155;HTU21D;63735;44.730;37.818;2022-12-07T12:32:18;14.12;67.34
75155;HTU21D;63735;44.730;37.818;2022-12-07T12:37:46;13.74;68.01
75155;HTU21D;63735;44.730;37.818;2022-12-07T12:45:25;13.45;68.73
75155;HTU21D;63735;44.730;37.818;2022-12-07T12:47:56;13.31;68.96
75155;HTU21D;63735;44.730;37.818;2022-12-07T12:50:26;13.30;69.16
75155;HTU21D;63735;44.730;37.818;2022-12-07T12:53:29;13.30;69.23
75155;HTU21D;63735;44.730;37.818;2022-12-07T13:00:47;13.05;69.59
75155;HTU21D;63735;44.730;37.818;2022-12-07T13:03:28;13.00;69.88
75155;HTU21D;63735;44.730;37.818;2022-12-07T13:06:35;12.91;70.34
75155;HTU21D;63735;44.730;37.818;2022-12-07T13:09:04;12.87;70.22
75155;HTU21D;63735;44.730;37.818;2022-12-07T13:11:37;12.82;70.29
75155;HTU21D;63735;44.730;37.818;2022-12-07T13:14:42;12.74;70.65
75155;HTU21D;63735;44.730;37.818;2022-12-07T13:17:11;12.66;70.74
75155;HTU21D;63735;44.730;37.818;2022-12-07T13:25:02;12.55;71.35
75155;HTU21D;63735;44.730;37.818;2022-12-07T13:27:30;12.50;71.52
75155;HTU21D;63735;44.730;37.818;2022-12-07T13:29:56;12.44;71.79
75155;HTU21D;63735;44.730;37.818;2022-12-07T13:32:32;12.41;72.01
75155;HTU21D;63735;44.730;37.818;2022-12-07T13:34:58;12.38;71.89
75155;HTU21D;63735;44.730;37.818;2022-12-07T13:37:30;12.37;71.91
75155;HTU21D;63735;44.730;37.818;2022-12-07T13:39:59;12.33;71.98
75155;HTU21D;63735;44.730;37.818;2022-12-07T13:42:33;12.31;72.07
75155;HTU21D;63735;44.730;37.818;2022-12-07T13:45:16;12.28;72.03
75155;HTU21D;63735;44.730;37.818;2022-12-07T13:47:52;12.25;71.87
75155;HTU21D;63735;44.730;37.818;2022-12-07T13:50:32;12.21;71.74
75155;HTU21D;63735;44.730;37.818;2022-12-07T13:53:00;12.21;71.55
75155;HTU21D;63735;44.730;37.818;2022-12-07T13:55:27;12.18;71.45
75155;HTU21D;63735;44.730;37.818;2022-12-07T13:57:54;12.17;71.32
75155;HTU21D;63735;44.730;37.818;2022-12-07T14:00:21;12.15;71.22
75155;HTU21D;63735;44.730;37.818;2022-12-07T14:05:32;12.10;71.08
75155;HTU21D;63735;44.730;37.818;2022-12-07T14:08:03;12.08;71.03
75155;HTU21D;63735;44.730;37.818;2022-12-07T14:12:57;12.02;70.94
75155;HTU21D;63735;44.730;37.818;2022-12-07T14:15:34;11.98;70.96
75155;HTU21D;63735;44.730;37.818;2022-12-07T14:18:01;11.94;70.96
75155;HTU21D;63735;44.730;37.818;2022-12-07T14:20:40;11.92;70.97
75155;HTU21D;63735;44.730;37.818;2022-12-07T14:23:24;11.88;70.95
75155;HTU21D;63735;44.730;37.818;2022-12-07T14:25:52;11.85;70.91
75155;HTU21D;63735;44.730;37.818;2022-12-07T14:28:33;11.81;70.97
75155;HTU21D;63735;44.730;37.818;2022-12-07T14:31:00;11.78;70.98
75155;HTU21D;63735;44.730;37.818;2022-12-07T14:33:27;11.74;71.00
75155;HTU21D;63735;44.730;37.818;2022-12-07T14:35:53;11.71;71.07
75155;HTU21D;63735;44.730;37.818;2022-12-07T14:38:24;11.68;71.10
75155;HTU21D;63735;44.730;37.818;2022-12-07T14:40:52;11.68;71.10
75155;HTU21D;63735;44.730;37.818;2022-12-07T14:43:20;11.67;71.13
75155;HTU21D;63735;44.730;37.818;2022-12-07T14:45:46;11.64;71.17
75155;HTU21D;63735;44.730;37.818;2022-12-07T14:48:13;11.61;71.22
75155;HTU21D;63735;44.730;37.818;2022-12-07T14:50:50;11.58;71.29
75155;HTU21D;63735;44.730;37.818;2022-12-07T14:53:18;11.53;71.37
75155;HTU21D;63735;44.730;37.818;2022-12-07T14:55:46;11.49;71.39
75155;HTU21D;63735;44.730;37.818;2022-12-07T14:58:13;11.47;71.48
75155;HTU21D;63735;44.730;37.818;2022-12-07T15:00:40;11.44;71.49
75155;HTU21D;63735;44.730;37.818;2022-12-07T15:03:06;11.43;71.48
75155;HTU21D;63735;44.730;37.818;2022-12-07T15:05:32;11.37;71.52
75155;HTU21D;63735;44.730;37.818;2022-12-07T15:07:58;11.37;71.60
75155;HTU21D;63735;44.730;37.818;2022-12-07T15:10:28;11.33;71.63
75155;HTU21D;63735;44.730;37.818;2022-12-07T15:13:01;11.31;71.73
75155;HTU21D;63735;44.730;37.818;2022-12-07T15:15:47;11.29;71.75
75155;HTU21D;63735;44.730;37.818;2022-12-07T15:18:14;11.28;71.76
75155;HTU21D;63735;44.730;37.818;2022-12-07T15:20:40;11.27;71.77
75155;HTU21D;63735;44.730;37.818;2022-12-07T15:23:11;11.27;71.80
75155;HTU21D;63735;44.730;37.818;2022-12-07T15:25:40;11.24;71.86
75155;HTU21D;63735;44.730;37.818;2022-12-07T15:28:07;11.22;71.92
75155;HTU21D;63735;44.730;37.818;2022-12-07T15:30:33;11.23;72.00
75155;HTU21D;63735;44.730;37.818;2022-12-07T15:32:58;11.29;71.91
75155;HTU21D;63735;44.730;37.818;2022-12-07T15:35:24;11.33;71.82
75155;HTU21D;63735;44.730;37.818;2022-12-07T15:37:50;11.32;71.81
75155;HTU21D;63735;44.730;37.818;2022-12-07T15:40:16;11.30;71.85
75155;HTU21D;63735;44.730;37.818;2022-12-07T15:42:42;11.28;71.96
75155;HTU21D;63735;44.730;37.818;2022-12-07T15:45:10;11.26;71.98
75155;HTU21D;63735;44.730;37.818;2022-12-07T15:47:37;11.20;72.04
75155;HTU21D;63735;44.730;37.818;2022-12-07T15:50:05;11.13;72.13
75155;HTU21D;63735;44.730;37.818;2022-12-07T15:52:31;11.08;72.25
75155;HTU21D;63735;44.730;37.818;2022-12-07T15:54:57;11.02;72.40
75155;HTU21D;63735;44.730;37.818;2022-12-07T15:57:27;10.99;72.56
75155;HTU21D;63735;44.730;37.818;2022-12-07T15:59:53;10.97;72.60
75155;HTU21D;63735;44.730;37.818;2022-12-07T16:02:19;10.93;72.65
75155;HTU21D;63735;44.730;37.818;2022-12-07T16:04:45;10.92;72.71
75155;HTU21D;63735;44.730;37.818;2022-12-07T16:07:11;10.86;72.80
75155;HTU21D;63735;44.730;37.818;2022-12-07T16:09:40;10.89;72.87
75155;HTU21D;63735;44.730;37.818;2022-12-07T16:12:06;10.95;72.77
75155;HTU21D;63735;44.730;37.818;2022-12-07T16:14:32;10.99;72.61
75155;HTU21D;63735;44.730;37.818;2022-12-07T16:16:58;11.02;72.60
75155;HTU21D;63735;44.730;37.818;2022-12-07T16:19:24;11.01;72.62
75155;HTU21D;63735;44.730;37.818;2022-12-07T16:21:50;11.09;72.47
75155;HTU21D;63735;44.730;37.818;2022-12-07T16:24:16;11.09;72.42
75155;HTU21D;63735;44.730;37.818;2022-12-07T16:26:44;11.13;72.28
75155;HTU21D;63735;44.730;37.818;2022-12-07T16:29:12;11.15;72.19
75155;HTU21D;63735;44.730;37.818;2022-12-07T16:31:38;11.17;72.09
75155;HTU21D;63735;44.730;37.818;2022-12-07T16:34:04;11.16;72.03
75155;HTU21D;63735;44.730;37.818;2022-12-07T16:36:30;11.18;71.97
75155;HTU21D;63735;44.730;37.818;2022-12-07T16:38:58;11.19;71.87
75155;HTU21D;63735;44.730;37.818;2022-12-07T16:41:24;11.20;71.77
75155;HTU21D;63735;44.730;37.818;2022-12-07T16:43:50;11.15;71.80
75155;HTU21D;63735;44.730;37.818;2022-12-07T16:46:16;11.12;71.77
75155;HTU21D;63735;44.730;37.818;2022-12-07T16:48:43;11.05;71.90
75155;HTU21D;63735;44.730;37.818;2022-12-07T16:51:11;11.02;71.93
75155;HTU21D;63735;44.730;37.818;2022-12-07T16:53:39;11.04;71.86
75155;HTU21D;63735;44.730;37.818;2022-12-07T16:56:13;11.05;71.73
75155;HTU21D;63735;44.730;37.818;2022-12-07T16:58:41;11.09;71.62
75155;HTU21D;63735;44.730;37.818;2022-12-07T17:01:12;11.08;71.53
75155;HTU21D;63735;44.730;37.818;2022-12-07T17:03:39;11.09;71.42